KFOT - Fortuna, California, USA
Updated: Fri, 21-Jul-2017 3:15am PDT
Overcast
Overcast
 Wind from NW
Wind: NW 3 mph , 6 km/h
Temperature: 52°F , 11°C
Dew Point: 52°F , 11°C
Humidity: 100%
Barometer: 30.14 inHg , 1020.7 hPa
Clouds: Overcast
Visibility: less than 1/4 mile , 2 km
Cloud details: Overcast 200 ft
2017/07/21 10:15 KFOT 211015Z AUTO 31003KT M1/4SM OVC002 11/11 A3014 RMK AO1

Metar display script from Saratoga-Weather.org